Time;durP1;ratioP1;P1;durP2;ratioP2;P2;SDS_P1;SDS_P2;PMS_P1;PMS_P2;Temp;Humidity;BMP_temperature;BMP_pressure;BME280_temperature;BME280_humidity;BME280_pressure;Samples;Min_cycle;Max_cycle;Signal;HPM_P1;HPM_P2
2023/11/04 00:00:49;;;;;;;0.90;0.70;;;9.50;80.70;;;;;;5031863;28;20104;-27
2023/11/04 00:03:15;;;;;;;0.70;0.60;;;9.50;80.60;;;;;;5032311;28;20021;-28
2023/11/04 00:05:41;;;;;;;1.60;0.88;;;9.50;80.50;;;;;;5032083;28;20022;-28
2023/11/04 00:08:07;;;;;;;0.88;0.68;;;9.50;80.50;;;;;;5031931;28;20091;-32
2023/11/04 00:10:32;;;;;;;1.15;0.63;;;9.50;80.50;;;;;;5032091;28;20049;-28
2023/11/04 00:12:58;;;;;;;1.95;0.75;;;9.50;80.40;;;;;;5032377;28;20029;-27
2023/11/04 00:15:24;;;;;;;1.58;0.60;;;9.50;80.30;;;;;;5031967;28;20033;-28
2023/11/04 00:17:49;;;;;;;0.95;0.70;;;9.60;80.20;;;;;;5031869;28;20190;-32
2023/11/04 00:20:15;;;;;;;1.05;0.60;;;9.60;80.20;;;;;;5031497;28;20025;-27
2023/11/04 00:22:40;;;;;;;0.77;0.68;;;9.60;80.10;;;;;;5031803;28;20067;-27
2023/11/04 00:25:06;;;;;;;2.05;0.90;;;9.60;80.00;;;;;;5031971;28;20026;-34
2023/11/04 00:27:32;;;;;;;0.88;0.60;;;9.60;80.00;;;;;;5032221;28;20382;-30
2023/11/04 00:29:58;;;;;;;1.35;0.70;;;9.70;80.10;;;;;;5031280;28;20056;-26
2023/11/04 00:32:24;;;;;;;0.70;0.60;;;9.60;80.00;;;;;;5031823;28;20025;-28
2023/11/04 00:34:49;;;;;;;1.25;0.75;;;9.70;80.00;;;;;;5031814;28;20075;-28
2023/11/04 00:37:15;;;;;;;2.10;0.68;;;9.70;80.00;;;;;;5031367;28;20025;-27
2023/11/04 00:39:40;;;;;;;1.27;0.80;;;9.70;80.00;;;;;;5031454;28;20512;-26
2023/11/04 00:42:06;;;;;;;0.82;0.52;;;9.70;79.90;;;;;;5031332;28;20032;-28
2023/11/04 00:44:32;;;;;;;1.70;1.05;;;9.70;80.00;;;;;;5031714;28;20010;-29
2023/11/04 00:46:58;;;;;;;0.73;0.70;;;9.80;80.00;;;;;;5031643;28;20151;-28
2023/11/04 00:49:23;;;;;;;1.95;0.80;;;9.70;80.30;;;;;;5031478;28;20021;-31
2023/11/04 00:51:49;;;;;;;1.15;0.60;;;9.70;80.30;;;;;;5031569;28;20034;-30
2023/11/04 00:54:15;;;;;;;1.15;0.70;;;9.80;80.30;;;;;;5031352;28;20021;-28
2023/11/04 00:56:41;;;;;;;0.93;0.55;;;9.80;80.20;;;;;;5031169;28;20029;-32
2023/11/04 00:59:07;;;;;;;1.27;0.70;;;9.80;80.20;;;;;;5031265;28;20169;-27
2023/11/04 01:01:33;;;;;;;1.75;0.80;;;9.80;80.10;;;;;;5031424;28;20024;-28
2023/11/04 01:03:59;;;;;;;0.77;0.70;;;9.80;80.10;;;;;;5029896;28;20453;-28
2023/11/04 01:06:24;;;;;;;0.65;0.60;;;9.80;80.10;;;;;;5032207;28;20025;-28
2023/11/04 01:08:50;;;;;;;0.60;0.60;;;9.80;80.10;;;;;;5035450;28;20025;-34
2023/11/04 01:11:17;;;;;;;1.10;0.70;;;9.80;80.20;;;;;;5034946;28;20151;-29
2023/11/04 01:13:43;;;;;;;0.90;0.70;;;9.80;80.20;;;;;;5035523;28;20029;-29
2023/11/04 01:16:08;;;;;;;1.40;0.80;;;9.80;80.20;;;;;;5034949;28;20028;-26
2023/11/04 01:18:34;;;;;;;1.63;0.80;;;9.80;80.30;;;;;;5035060;28;20501;-27
2023/11/04 01:21:00;;;;;;;0.88;0.70;;;9.90;80.30;;;;;;5035154;28;20076;-28
2023/11/04 01:23:25;;;;;;;2.35;0.80;;;9.90;80.30;;;;;;5035107;28;20107;-27
2023/11/04 01:25:51;;;;;;;0.75;0.70;;;9.90;80.30;;;;;;5035172;28;20376;-28
2023/11/04 01:28:16;;;;;;;1.08;0.70;;;9.90;80.40;;;;;;5035019;28;20029;-40
2023/11/04 01:30:42;;;;;;;1.85;0.82;;;9.90;80.60;;;;;;5033294;28;20095;-26
2023/11/04 01:33:09;;;;;;;1.77;0.82;;;9.90;80.60;;;;;;5033546;28;20076;-29
2023/11/04 01:35:34;;;;;;;0.82;0.80;;;9.90;80.60;;;;;;5033440;28;20497;-29
2023/11/04 01:38:00;;;;;;;0.65;0.65;;;9.90;80.80;;;;;;5034906;28;20080;-28
2023/11/04 01:40:26;;;;;;;1.27;0.80;;;10.00;80.80;;;;;;5033310;28;20022;-27
2023/11/04 01:42:51;;;;;;;0.93;0.70;;;10.00;80.70;;;;;;5034715;28;20029;-28
2023/11/04 01:45:17;;;;;;;1.48;0.80;;;10.00;80.70;;;;;;5034626;28;20021;-30
2023/11/04 01:47:42;;;;;;;1.13;0.63;;;10.00;80.70;;;;;;5034756;28;20032;-29
2023/11/04 01:50:08;;;;;;;1.58;0.77;;;10.00;80.70;;;;;;5034698;28;20528;-34
2023/11/04 01:52:38;;;;;;;1.45;0.90;;;10.00;81.40;;;;;;5034784;28;20025;-30
2023/11/04 01:55:06;;;;;;;1.10;0.70;;;10.10;81.40;;;;;;5034851;28;20512;-27
2023/11/04 01:57:32;;;;;;;1.63;0.90;;;10.10;81.30;;;;;;5034422;28;20022;-29
2023/11/04 01:59:57;;;;;;;1.85;0.98;;;10.10;81.20;;;;;;5034369;28;20373;-29
2023/11/04 02:02:25;;;;;;;2.25;1.00;;;10.10;81.20;;;;;;5033734;28;20026;-30
2023/11/04 02:04:50;;;;;;;2.15;0.80;;;10.10;82.00;;;;;;5034092;28;20025;-31
2023/11/04 02:07:16;;;;;;;3.08;1.10;;;10.10;81.40;;;;;;5034301;28;20041;-32
2023/11/04 02:09:41;;;;;;;1.63;1.20;;;10.10;81.30;;;;;;5034121;28;20083;-29
2023/11/04 02:12:07;;;;;;;1.73;0.88;;;10.10;81.30;;;;;;5034054;28;20037;-27
2023/11/04 02:14:33;;;;;;;1.00;0.90;;;10.20;81.30;;;;;;5034372;28;20028;-32
2023/11/04 02:16:58;;;;;;;1.13;0.98;;;10.20;81.30;;;;;;5034209;28;20013;-30
2023/11/04 02:19:24;;;;;;;1.10;0.90;;;10.20;81.20;;;;;;5032852;28;20021;-29
2023/11/04 02:21:50;;;;;;;0.88;0.80;;;10.20;81.10;;;;;;5033958;28;20026;-28
2023/11/04 02:24:15;;;;;;;1.75;0.77;;;10.20;81.10;;;;;;5034111;28;20061;-29
2023/11/04 02:26:41;;;;;;;1.40;1.00;;;10.20;81.10;;;;;;5033984;28;20457;-29
2023/11/04 02:29:07;;;;;;;5.00;1.25;;;10.20;81.10;;;;;;5033738;28;20029;-29
2023/11/04 02:31:33;;;;;;;1.08;0.98;;;10.30;81.10;;;;;;5033752;28;20041;-29
2023/11/04 02:33:59;;;;;;;1.73;0.88;;;10.30;81.10;;;;;;5033696;28;20034;-31
2023/11/04 02:36:25;;;;;;;1.35;0.88;;;10.30;81.20;;;;;;5033737;28;20032;-33
2023/11/04 02:38:51;;;;;;;3.13;0.80;;;10.30;81.20;;;;;;5033697;28;20075;-31
2023/11/04 02:41:16;;;;;;;4.43;1.02;;;10.30;81.10;;;;;;5033562;28;20028;-29
2023/11/04 02:43:42;;;;;;;1.20;0.77;;;10.30;81.10;;;;;;5033681;28;20028;-27
2023/11/04 02:46:07;;;;;;;4.25;0.98;;;10.30;81.30;;;;;;5033522;28;20079;-37
2023/11/04 02:48:33;;;;;;;2.65;0.93;;;10.30;81.30;;;;;;5033546;28;20081;-29
2023/11/04 02:50:59;;;;;;;1.17;1.00;;;10.30;81.40;;;;;;5033205;28;20021;-31
2023/11/04 02:53:24;;;;;;;1.92;0.90;;;10.30;81.30;;;;;;5033795;28;20025;-28
2023/11/04 02:55:50;;;;;;;1.88;1.00;;;10.40;81.40;;;;;;5033294;28;20381;-28
2023/11/04 02:58:16;;;;;;;1.02;0.93;;;10.40;81.40;;;;;;5033569;28;20102;-30
2023/11/04 03:00:41;;;;;;;1.00;0.90;;;10.40;81.50;;;;;;5031746;28;20447;-29
2023/11/04 03:03:07;;;;;;;3.47;0.95;;;10.30;81.50;;;;;;5033495;28;20437;-27
2023/11/04 03:05:33;;;;;;;1.65;1.00;;;10.40;81.50;;;;;;5033469;28;20030;-27
2023/11/04 03:07:58;;;;;;;1.25;1.10;;;10.40;81.60;;;;;;5033226;28;20037;-28
2023/11/04 03:10:24;;;;;;;1.38;0.98;;;10.40;81.80;;;;;;5031727;28;20505;-28
2023/11/04 03:12:50;;;;;;;1.90;1.00;;;10.40;81.90;;;;;;5032979;28;20037;-29
2023/11/04 03:15:16;;;;;;;3.03;1.00;;;10.30;81.90;;;;;;5033047;28;20048;-27
2023/11/04 03:17:42;;;;;;;2.72;1.30;;;10.40;82.10;;;;;;5032741;28;20025;-27
2023/11/04 03:20:08;;;;;;;2.08;1.20;;;10.40;82.20;;;;;;5032652;28;20022;-27
2023/11/04 03:22:33;;;;;;;1.50;1.05;;;10.30;82.40;;;;;;5033373;28;20478;-28
2023/11/04 03:24:59;;;;;;;2.67;1.30;;;10.30;82.50;;;;;;5032865;28;20083;-29
2023/11/04 03:27:25;;;;;;;3.15;1.17;;;10.30;82.70;;;;;;5032823;28;20036;-28
2023/11/04 03:29:50;;;;;;;1.92;1.50;;;10.30;82.80;;;;;;5032172;28;20049;-29
2023/11/04 03:32:16;;;;;;;4.38;1.50;;;10.30;82.90;;;;;;5032666;28;20022;-35
2023/11/04 03:34:41;;;;;;;1.23;1.08;;;10.30;83.00;;;;;;5032979;28;20028;-27
2023/11/04 03:37:07;;;;;;;8.07;1.48;;;10.30;83.10;;;;;;5032762;28;20029;-30
2023/11/04 03:39:33;;;;;;;1.95;1.20;;;10.30;83.20;;;;;;5032858;28;20026;-28
2023/11/04 03:41:59;;;;;;;1.42;1.20;;;10.30;83.20;;;;;;5032421;28;20021;-28
2023/11/04 03:44:25;;;;;;;1.77;1.25;;;10.30;83.40;;;;;;5032594;28;20463;-27
2023/11/04 03:46:51;;;;;;;2.17;1.10;;;10.30;83.50;;;;;;5032257;28;20021;-29
2023/11/04 03:49:16;;;;;;;2.10;1.15;;;10.30;83.60;;;;;;5032503;28;20029;-31
2023/11/04 03:51:43;;;;;;;2.13;1.17;;;10.30;83.60;;;;;;5032211;28;20261;-28
2023/11/04 03:54:08;;;;;;;1.65;1.30;;;10.30;83.70;;;;;;5032736;28;20107;-29
2023/11/04 03:56:34;;;;;;;2.17;1.13;;;10.30;83.80;;;;;;5030719;28;20430;-31
2023/11/04 03:58:59;;;;;;;2.70;1.40;;;10.30;83.90;;;;;;5032175;28;20382;-28
2023/11/04 04:01:25;;;;;;;2.10;1.50;;;10.30;83.90;;;;;;5032319;28;20072;-31
2023/11/04 04:03:51;;;;;;;1.70;1.15;;;10.40;84.00;;;;;;5032497;28;20029;-33
2023/11/04 04:06:18;;;;;;;1.40;1.00;;;10.40;84.10;;;;;;5031967;28;20029;-27
2023/11/04 04:08:43;;;;;;;2.03;1.20;;;10.30;84.70;;;;;;5032080;28;20101;-27
2023/11/04 04:11:10;;;;;;;1.50;1.40;;;10.40;84.20;;;;;;5031740;28;20060;-28
2023/11/04 04:13:35;;;;;;;2.15;1.10;;;10.30;84.30;;;;;;5031913;28;20029;-29
2023/11/04 04:16:01;;;;;;;3.15;1.27;;;10.40;84.50;;;;;;5031870;28;20155;-28
2023/11/04 04:18:27;;;;;;;2.22;1.40;;;10.40;84.50;;;;;;5031800;28;20108;-28
2023/11/04 04:20:52;;;;;;;3.78;1.42;;;10.40;84.50;;;;;;5030308;28;20529;-27
2023/11/04 04:23:18;;;;;;;1.48;1.13;;;10.40;85.20;;;;;;5031772;28;20032;-32
2023/11/04 04:25:44;;;;;;;1.70;1.30;;;10.40;84.60;;;;;;5031905;28;20385;-26
2023/11/04 04:28:09;;;;;;;2.05;1.30;;;10.40;84.70;;;;;;5031938;28;20029;-29
2023/11/04 04:30:35;;;;;;;3.22;1.70;;;10.40;84.80;;;;;;5031488;28;20049;-28
2023/11/04 04:33:00;;;;;;;3.53;1.33;;;10.40;84.80;;;;;;5031836;28;20030;-28
2023/11/04 04:35:28;;;;;;;1.80;1.10;;;10.40;84.90;;;;;;5031656;28;20025;-28
2023/11/04 04:37:54;;;;;;;2.92;1.40;;;10.40;85.00;;;;;;5031557;28;20037;-27
2023/11/04 04:40:19;;;;;;;1.77;1.20;;;10.40;85.10;;;;;;5031285;28;20033;-27
2023/11/04 04:42:45;;;;;;;2.80;1.15;;;10.40;85.30;;;;;;5030839;28;20044;-30
2023/11/04 04:45:10;;;;;;;2.53;1.05;;;10.40;85.30;;;;;;5031250;28;20021;-30
2023/11/04 04:47:40;;;;;;;2.45;1.30;;;10.30;85.40;;;;;;5031576;28;20032;-27
2023/11/04 04:50:05;;;;;;;2.80;1.50;;;10.30;85.50;;;;;;5031657;28;20203;-29
2023/11/04 04:52:31;;;;;;;2.25;1.35;;;10.30;85.60;;;;;;5030246;28;20033;-28
2023/11/04 04:54:57;;;;;;;2.55;1.50;;;10.30;85.70;;;;;;5031327;28;20036;-27
2023/11/04 04:57:23;;;;;;;2.45;1.27;;;10.30;85.80;;;;;;5031458;28;20032;-27
2023/11/04 04:59:48;;;;;;;2.30;1.30;;;10.30;85.90;;;;;;5031383;28;20097;-31
2023/11/04 05:02:15;;;;;;;1.88;1.35;;;10.30;86.00;;;;;;5031176;28;20611;-27
2023/11/04 05:04:42;;;;;;;2.35;1.60;;;10.30;86.00;;;;;;5031473;28;20053;-28
2023/11/04 05:07:07;;;;;;;2.35;1.60;;;10.30;86.10;;;;;;5031123;28;20116;-28
2023/11/04 05:09:33;;;;;;;2.75;1.60;;;10.30;86.20;;;;;;5031199;28;20509;-27
2023/11/04 05:11:58;;;;;;;2.20;1.40;;;10.30;86.20;;;;;;5031401;28;20022;-28
2023/11/04 05:14:24;;;;;;;2.65;1.50;;;10.30;86.30;;;;;;5030003;28;20045;-27
2023/11/04 05:16:49;;;;;;;3.20;1.80;;;10.30;86.40;;;;;;5030996;28;20091;-29
2023/11/04 05:19:15;;;;;;;2.90;1.60;;;10.30;86.40;;;;;;5030472;28;20053;-29
2023/11/04 05:21:41;;;;;;;2.38;1.35;;;10.30;86.40;;;;;;5030773;28;20026;-28
2023/11/04 05:24:08;;;;;;;3.35;1.40;;;10.30;86.40;;;;;;5031585;28;20151;-31
2023/11/04 05:26:37;;;;;;;1.98;1.50;;;10.30;86.40;;;;;;5030229;28;20088;-31
2023/11/04 05:29:03;;;;;;;2.25;1.67;;;10.30;86.50;;;;;;5031495;28;20025;-28
2023/11/04 05:31:28;;;;;;;3.85;1.58;;;10.30;86.50;;;;;;5031089;28;20094;-30
2023/11/04 05:33:54;;;;;;;3.22;1.60;;;10.40;86.50;;;;;;5031503;28;20049;-27
2023/11/04 05:36:19;;;;;;;2.42;1.48;;;10.40;86.50;;;;;;5031065;28;20111;-27
2023/11/04 05:38:45;;;;;;;1.70;1.30;;;10.30;86.50;;;;;;5031193;28;20041;-29
2023/11/04 05:41:11;;;;;;;3.35;1.77;;;10.40;86.60;;;;;;5030898;28;20029;-28
2023/11/04 05:43:38;;;;;;;2.47;1.50;;;10.40;86.60;;;;;;5031013;28;20057;-28
2023/11/04 05:46:07;;;;;;;3.40;1.35;;;10.30;86.60;;;;;;5029713;28;20060;-26
2023/11/04 05:48:33;;;;;;;5.40;1.88;;;10.30;86.80;;;;;;5030971;28;20079;-26
2023/11/04 05:50:59;;;;;;;1.77;1.30;;;10.40;86.80;;;;;;5031163;28;20063;-29
2023/11/04 05:53:24;;;;;;;3.03;1.45;;;10.30;86.80;;;;;;5033387;28;20061;-27
2023/11/04 05:55:50;;;;;;;2.03;1.45;;;10.40;86.80;;;;;;5033943;28;20501;-30
2023/11/04 05:58:15;;;;;;;2.20;1.40;;;10.40;86.80;;;;;;5033519;28;20037;-27
2023/11/04 06:00:41;;;;;;;1.83;1.60;;;10.40;86.80;;;;;;5033063;28;20429;-28
2023/11/04 06:03:08;;;;;;;2.70;1.65;;;10.40;86.80;;;;;;5033202;28;20381;-29
2023/11/04 06:05:34;;;;;;;2.30;1.65;;;10.40;86.80;;;;;;5032236;28;20421;-27
2023/11/04 06:08:01;;;;;;;2.25;1.48;;;10.40;86.80;;;;;;5033019;28;20029;-27
2023/11/04 06:10:26;;;;;;;4.43;1.60;;;10.40;86.70;;;;;;5033361;28;20056;-28
2023/11/04 06:12:52;;;;;;;3.22;1.58;;;10.40;86.70;;;;;;5032950;28;20017;-27
2023/11/04 06:15:18;;;;;;;1.98;1.60;;;10.40;86.80;;;;;;5033183;28;20037;-31
2023/11/04 06:17:44;;;;;;;2.55;1.63;;;10.50;86.80;;;;;;5032723;28;20044;-29
2023/11/04 06:20:09;;;;;;;4.55;1.70;;;10.40;87.40;;;;;;5031595;28;20022;-30
2023/11/04 06:22:35;;;;;;;2.30;1.40;;;10.50;86.80;;;;;;5033064;28;20025;-29
2023/11/04 06:25:01;;;;;;;2.72;1.60;;;10.50;86.80;;;;;;5034330;28;20445;-28
2023/11/04 06:27:26;;;;;;;3.58;1.75;;;10.50;86.70;;;;;;5034266;28;20022;-30
2023/11/04 06:29:52;;;;;;;3.67;1.55;;;10.40;86.60;;;;;;5032799;28;20034;-31
2023/11/04 06:32:18;;;;;;;2.60;1.50;;;10.50;86.70;;;;;;5034299;28;20486;-29
2023/11/04 06:34:43;;;;;;;4.43;1.65;;;10.50;86.80;;;;;;5034062;28;20030;-26
2023/11/04 06:37:09;;;;;;;2.30;1.45;;;10.50;86.80;;;;;;5034128;28;20025;-32
2023/11/04 06:39:35;;;;;;;3.25;1.30;;;10.50;86.80;;;;;;5033799;28;20088;-31
2023/11/04 06:42:01;;;;;;;3.60;1.38;;;10.50;86.80;;;;;;5033694;28;20025;-28
2023/11/04 06:44:26;;;;;;;2.78;1.75;;;10.50;86.80;;;;;;5034156;28;20036;-32
2023/11/04 06:46:52;;;;;;;3.13;1.60;;;10.50;86.90;;;;;;5033933;28;20021;-30
2023/11/04 06:49:20;;;;;;;5.07;1.77;;;10.50;86.90;;;;;;5033889;28;20028;-31
2023/11/04 06:51:45;;;;;;;3.75;1.65;;;10.50;86.90;;;;;;5034128;28;20484;-27
2023/11/04 06:54:11;;;;;;;3.50;1.50;;;10.50;86.90;;;;;;5033566;28;20022;-28
2023/11/04 06:56:36;;;;;;;3.45;1.80;;;10.50;86.90;;;;;;5033613;28;20052;-30
2023/11/04 06:59:02;;;;;;;2.70;1.50;;;10.50;86.90;;;;;;5033770;28;20049;-29
2023/11/04 07:01:28;;;;;;;2.78;1.73;;;10.50;87.00;;;;;;5033340;28;20024;-30
2023/11/04 07:03:54;;;;;;;2.00;1.40;;;10.50;87.00;;;;;;5033002;28;20026;-27
2023/11/04 07:06:20;;;;;;;3.22;1.50;;;10.50;87.00;;;;;;5033298;28;20071;-29
2023/11/04 07:08:46;;;;;;;6.32;1.60;;;10.50;87.00;;;;;;5033552;28;20096;-30
2023/11/04 07:11:19;;;;;;;2.28;1.52;;;10.50;86.90;;;;;;5033394;28;20032;-27
2023/11/04 07:13:45;;;;;;;4.47;2.38;;;10.50;86.90;;;;;;5033282;28;20060;-27
2023/11/04 07:16:13;;;;;;;3.00;1.60;;;10.50;86.90;;;;;;5033271;28;20418;-28
2023/11/04 07:18:42;;;;;;;2.90;1.52;;;10.50;86.80;;;;;;5033322;28;20044;-28
2023/11/04 07:21:09;;;;;;;5.78;1.60;;;10.50;86.80;;;;;;5032966;28;20022;-28
2023/11/04 07:23:35;;;;;;;3.67;1.30;;;10.50;87.00;;;;;;5033035;28;20105;-29
2023/11/04 07:26:01;;;;;;;4.03;1.70;;;10.50;87.20;;;;;;5033302;28;20022;-28
2023/11/04 07:28:35;;;;;;;3.25;1.60;;;10.60;87.20;;;;;;5033057;28;20030;-27
2023/11/04 07:31:02;;;;;;;2.08;1.52;;;10.50;87.10;;;;;;5032544;28;20049;-29
2023/11/04 07:33:27;;;;;;;4.93;1.70;;;10.60;87.30;;;;;;5033235;28;20345;-30
2023/11/04 07:35:53;;;;;;;3.20;1.38;;;10.60;87.80;;;;;;5032831;28;20397;-27
2023/11/04 07:38:19;;;;;;;3.33;1.35;;;10.60;87.10;;;;;;5032965;28;20032;-29
2023/11/04 07:40:44;;;;;;;4.18;1.58;;;10.60;86.90;;;;;;5032897;28;20092;-27
2023/11/04 07:43:10;;;;;;;3.55;1.58;;;10.60;86.80;;;;;;5032575;28;20030;-28
2023/11/04 07:45:37;;;;;;;2.28;1.50;;;10.60;86.80;;;;;;5032992;28;20036;-28
2023/11/04 07:48:03;;;;;;;2.95;1.40;;;10.60;86.90;;;;;;5032307;28;20021;-27
2023/11/04 07:50:29;;;;;;;2.90;1.30;;;10.60;87.00;;;;;;5032626;28;20091;-32
2023/11/04 07:52:55;;;;;;;3.90;1.30;;;10.50;87.00;;;;;;5032590;28;20413;-26
2023/11/04 07:55:21;;;;;;;2.78;1.40;;;10.50;87.10;;;;;;5032757;28;20032;-32
2023/11/04 07:57:47;;;;;;;3.60;1.35;;;10.50;87.10;;;;;;5032655;28;20104;-31
2023/11/04 08:00:13;;;;;;;2.53;1.40;;;10.50;87.00;;;;;;5032550;28;20432;-27
2023/11/04 08:02:39;;;;;;;3.40;1.30;;;10.50;87.00;;;;;;5032504;28;20101;-28
2023/11/04 08:05:06;;;;;;;2.08;1.25;;;10.50;87.10;;;;;;5032666;28;20140;-28
2023/11/04 08:07:31;;;;;;;5.22;1.25;;;10.50;87.10;;;;;;5032233;28;20030;-29
2023/11/04 08:09:58;;;;;;;4.35;1.55;;;10.50;87.10;;;;;;5032092;28;20075;-30
2023/11/04 08:12:24;;;;;;;2.65;1.33;;;10.60;87.00;;;;;;5032417;28;20104;-28
2023/11/04 08:14:50;;;;;;;2.83;1.50;;;10.60;87.00;;;;;;5032195;28;20171;-29
2023/11/04 08:17:15;;;;;;;2.05;1.60;;;10.60;87.30;;;;;;5032068;28;20032;-30
2023/11/04 08:19:41;;;;;;;3.05;1.45;;;10.60;87.40;;;;;;5031853;28;20024;-30
2023/11/04 08:22:09;;;;;;;1.83;1.05;;;10.70;87.30;;;;;;5032044;28;20545;-28
2023/11/04 08:24:34;;;;;;;2.30;1.13;;;10.70;87.10;;;;;;5032012;28;20021;-31
2023/11/04 08:27:00;;;;;;;3.17;1.00;;;10.70;87.10;;;;;;5031746;28;20084;-34
2023/11/04 08:29:26;;;;;;;2.10;1.15;;;10.70;87.10;;;;;;5031956;28;20024;-32
2023/11/04 08:31:51;;;;;;;3.97;1.13;;;10.80;87.70;;;;;;5031777;28;20030;-28
2023/11/04 08:34:17;;;;;;;3.03;1.15;;;10.80;87.90;;;;;;5032056;28;20478;-33
2023/11/04 08:36:43;;;;;;;2.60;1.15;;;10.90;87.70;;;;;;5031763;28;20386;-28
2023/11/04 08:39:09;;;;;;;1.95;1.08;;;10.90;88.20;;;;;;5031653;28;20026;-28
2023/11/04 08:41:35;;;;;;;5.30;1.27;;;10.90;88.20;;;;;;5031863;28;20056;-31
2023/11/04 08:44:01;;;;;;;1.73;1.23;;;10.90;87.90;;;;;;5031567;28;20363;-30
2023/11/04 08:46:26;;;;;;;1.40;0.93;;;10.90;87.80;;;;;;5031672;28;20033;-30
2023/11/04 08:48:52;;;;;;;3.40;1.00;;;10.90;88.00;;;;;;5031746;28;20014;-28
2023/11/04 08:51:18;;;;;;;2.95;1.13;;;10.90;87.90;;;;;;5031588;28;20033;-28
2023/11/04 08:53:43;;;;;;;2.50;0.93;;;11.00;87.80;;;;;;5031475;28;20057;-31
2023/11/04 08:56:09;;;;;;;1.60;1.10;;;11.00;87.70;;;;;;5031503;28;20053;-26
2023/11/04 08:58:35;;;;;;;4.15;1.20;;;11.00;87.40;;;;;;5031470;28;20025;-27
2023/11/04 09:01:02;;;;;;;1.25;0.98;;;11.10;87.10;;;;;;5031006;28;20030;-30
2023/11/04 09:03:27;;;;;;;3.63;1.20;;;11.10;86.80;;;;;;5031613;28;20083;-30
2023/11/04 09:05:53;;;;;;;1.88;1.08;;;11.20;86.80;;;;;;5031450;28;20022;-28
2023/11/04 09:08:20;;;;;;;3.15;1.10;;;11.20;86.80;;;;;;5031501;28;20478;-30
2023/11/04 09:10:47;;;;;;;2.63;0.88;;;11.20;86.80;;;;;;5031272;28;20026;-32
2023/11/04 09:13:13;;;;;;;1.50;0.80;;;11.20;86.90;;;;;;5031912;28;20022;-28
2023/11/04 09:15:39;;;;;;;1.60;0.90;;;11.30;86.90;;;;;;5031294;28;20021;-32
2023/11/04 09:18:04;;;;;;;2.05;1.00;;;11.40;86.90;;;;;;5031079;28;20083;-27
2023/11/04 09:20:30;;;;;;;3.10;0.75;;;11.40;86.70;;;;;;5031460;28;20432;-32
2023/11/04 09:22:56;;;;;;;3.05;0.90;;;11.50;88.00;;;;;;5031904;28;20022;-29
2023/11/04 09:25:22;;;;;;;1.58;0.77;;;11.50;87.80;;;;;;5031565;28;20029;-31
2023/11/04 09:27:47;;;;;;;3.53;1.00;;;11.50;87.70;;;;;;5032714;28;20055;-30
2023/11/04 09:30:13;;;;;;;0.98;0.63;;;11.60;87.30;;;;;;5033616;28;20091;-27
2023/11/04 09:32:39;;;;;;;1.25;0.80;;;11.60;87.20;;;;;;5035199;28;20022;-30
2023/11/04 09:35:05;;;;;;;1.80;0.73;;;11.70;87.30;;;;;;5035334;28;20386;-31
2023/11/04 09:37:32;;;;;;;1.17;0.60;;;11.80;87.90;;;;;;5034902;28;20052;-27
2023/11/04 09:39:58;;;;;;;1.10;0.70;;;11.80;87.80;;;;;;5035205;28;20022;-30
2023/11/04 09:42:27;;;;;;;1.15;0.60;;;11.90;87.70;;;;;;5035188;28;20104;-27
2023/11/04 09:44:56;;;;;;;2.65;0.80;;;12.00;87.20;;;;;;5035183;28;20103;-26
2023/11/04 09:47:23;;;;;;;2.20;0.90;;;12.10;86.80;;;;;;5033445;28;20108;-37
2023/11/04 09:49:49;;;;;;;2.70;1.00;;;12.10;86.90;;;;;;5035062;28;20257;-29
2023/11/04 09:52:15;;;;;;;1.50;0.80;;;12.30;86.30;;;;;;5034730;28;20033;-28
2023/11/04 09:54:46;;;;;;;2.10;1.00;;;12.40;85.40;;;;;;5034978;28;20092;-31
2023/11/04 09:57:15;;;;;;;3.13;1.02;;;12.40;85.00;;;;;;5034828;28;20556;-29
2023/11/04 09:59:41;;;;;;;0.70;0.70;;;12.40;84.80;;;;;;5034684;28;20029;-28
2023/11/04 10:02:11;;;;;;;1.48;0.65;;;12.40;85.40;;;;;;5034473;28;20133;-30
2023/11/04 10:04:37;;;;;;;1.17;0.90;;;12.30;85.20;;;;;;5034619;28;20057;-28
2023/11/04 10:07:03;;;;;;;0.85;0.75;;;12.30;85.20;;;;;;5034494;28;20056;-29
2023/11/04 10:09:29;;;;;;;1.45;0.90;;;12.30;85.20;;;;;;5034443;28;20025;-29
2023/11/04 10:11:55;;;;;;;1.38;0.65;;;12.20;85.60;;;;;;5034560;28;20080;-26
2023/11/04 10:14:20;;;;;;;1.80;0.80;;;12.20;85.80;;;;;;5034117;28;20299;-27
2023/11/04 10:16:46;;;;;;;1.38;0.80;;;12.20;85.90;;;;;;5034175;28;20481;-27
2023/11/04 10:19:13;;;;;;;1.02;0.50;;;12.20;86.60;;;;;;5034011;28;20080;-27
2023/11/04 10:21:39;;;;;;;1.05;0.60;;;12.10;86.90;;;;;;5034525;28;20021;-27
2023/11/04 10:24:05;;;;;;;1.48;0.57;;;12.20;87.00;;;;;;5034080;28;20018;-29
2023/11/04 10:26:31;;;;;;;1.50;0.68;;;12.20;86.40;;;;;;5034282;28;20025;-30
2023/11/04 10:28:57;;;;;;;0.75;0.50;;;12.10;86.20;;;;;;5034163;28;20029;-33
2023/11/04 10:31:25;;;;;;;1.05;0.55;;;12.20;86.10;;;;;;5033818;28;20046;-29
2023/11/04 10:33:51;;;;;;;1.65;0.77;;;12.20;86.30;;;;;;5033832;28;20390;-29
2023/11/04 10:36:17;;;;;;;1.50;0.70;;;12.30;86.40;;;;;;5033912;28;20022;-27
2023/11/04 10:38:47;;;;;;;1.85;0.70;;;12.30;86.60;;;;;;5031227;28;20026;-28
2023/11/04 10:41:18;;;;;;;1.30;0.73;;;12.30;86.50;;;;;;5033415;28;20103;-28
2023/11/04 10:43:50;;;;;;;1.70;0.68;;;12.30;86.10;;;;;;5033613;28;20535;-27
2023/11/04 10:46:30;;;;;;;0.90;0.60;;;12.30;86.50;;;;;;5033654;28;20087;-28
2023/11/04 10:49:21;;;;;;;0.98;0.57;;;12.30;86.70;;;;;;5033688;28;20032;-32
2023/11/04 10:52:12;;;;;;;2.13;0.80;;;12.30;86.50;;;;;;5033676;28;20025;-30
2023/11/04 10:54:59;;;;;;;1.10;0.60;;;12.30;86.50;;;;;;5033557;28;20143;-32
2023/11/04 10:57:38;;;;;;;1.45;0.60;;;12.30;86.30;;;;;;5033772;28;20037;-26
2023/11/04 11:00:14;;;;;;;0.93;0.60;;;12.30;86.40;;;;;;5033598;28;20041;-27
2023/11/04 11:02:44;;;;;;;1.98;0.63;;;12.30;86.40;;;;;;5032847;28;20024;-32
2023/11/04 11:05:11;;;;;;;2.17;0.80;;;12.30;86.00;;;;;;5033300;28;20493;-34
2023/11/04 11:07:41;;;;;;;1.05;0.50;;;12.30;85.90;;;;;;5033380;28;20040;-32
2023/11/04 11:10:08;;;;;;;0.88;0.60;;;12.30;87.00;;;;;;5033356;28;20032;-35
2023/11/04 11:12:42;;;;;;;0.52;0.40;;;12.30;87.00;;;;;;5033574;28;20021;-34
2023/11/04 11:15:08;;;;;;;0.60;0.52;;;12.20;88.00;;;;;;5033321;28;20030;-30
2023/11/04 11:17:34;;;;;;;1.02;0.57;;;12.20;88.00;;;;;;5033207;28;20156;-32
2023/11/04 11:20:01;;;;;;;1.02;0.55;;;12.20;88.30;;;;;;5032889;28;20060;-32
2023/11/04 11:22:27;;;;;;;0.70;0.45;;;12.20;88.10;;;;;;5033271;28;20028;-30
2023/11/04 11:24:56;;;;;;;0.82;0.40;;;12.10;88.30;;;;;;5033461;28;20022;-31
2023/11/04 11:27:22;;;;;;;1.33;0.50;;;12.10;88.40;;;;;;5033311;28;20033;-33
2023/11/04 11:29:49;;;;;;;0.45;0.40;;;12.10;88.40;;;;;;5032985;28;20037;-32
2023/11/04 11:32:16;;;;;;;1.48;0.55;;;12.10;88.00;;;;;;5033505;28;20025;-30
2023/11/04 11:34:52;;;;;;;1.45;0.50;;;12.10;87.90;;;;;;5033324;28;20024;-30
2023/11/04 11:37:25;;;;;;;0.75;0.50;;;12.10;87.90;;;;;;5032869;28;20034;-32
2023/11/04 11:39:51;;;;;;;0.75;0.63;;;12.10;87.70;;;;;;5033046;28;20030;-31
2023/11/04 11:42:24;;;;;;;2.08;0.43;;;12.20;87.40;;;;;;5032776;28;20025;-34
2023/11/04 11:44:50;;;;;;;0.93;0.50;;;12.20;87.30;;;;;;5033091;28;20133;-30
2023/11/04 11:47:15;;;;;;;0.75;0.50;;;12.10;87.40;;;;;;5032848;28;20506;-30
2023/11/04 11:49:41;;;;;;;0.98;0.50;;;12.20;87.70;;;;;;5032634;28;20022;-32
2023/11/04 11:52:07;;;;;;;1.27;0.75;;;12.10;87.80;;;;;;5032340;28;20083;-31
2023/11/04 11:54:32;;;;;;;0.73;0.57;;;12.10;87.60;;;;;;5032707;28;20017;-33
2023/11/04 11:56:58;;;;;;;2.13;0.70;;;12.10;87.30;;;;;;5032725;28;20029;-29
2023/11/04 11:59:24;;;;;;;2.67;0.60;;;12.10;88.00;;;;;;5032436;28;20163;-29
2023/11/04 12:01:50;;;;;;;1.23;0.80;;;12.00;88.00;;;;;;5032426;28;20025;-27
2023/11/04 12:04:17;;;;;;;2.25;0.60;;;12.00;88.00;;;;;;5032429;28;20017;-29
2023/11/04 12:06:42;;;;;;;2.95;0.63;;;11.90;87.90;;;;;;5032814;28;20484;-29
2023/11/04 12:09:10;;;;;;;1.95;0.63;;;11.80;88.10;;;;;;5032579;28;20025;-30
2023/11/04 12:11:37;;;;;;;2.20;0.50;;;11.80;88.40;;;;;;5032344;28;20470;-30
2023/11/04 12:14:03;;;;;;;2.38;0.77;;;11.70;89.90;;;;;;5032196;28;20029;-30
2023/11/04 12:16:29;;;;;;;2.65;0.75;;;11.60;90.00;;;;;;5032228;28;20034;-28
2023/11/04 12:18:55;;;;;;;0.82;0.52;;;11.60;90.20;;;;;;5032336;28;20041;-27
2023/11/04 12:21:21;;;;;;;1.92;0.60;;;11.50;90.40;;;;;;5030650;28;20480;-29
2023/11/04 12:23:47;;;;;;;1.20;0.60;;;11.50;90.50;;;;;;5032239;28;20022;-27
2023/11/04 12:26:16;;;;;;;1.17;0.75;;;11.50;90.70;;;;;;5032247;28;20083;-29
2023/11/04 12:28:43;;;;;;;3.85;0.80;;;11.50;90.70;;;;;;5032397;28;20021;-30
2023/11/04 12:31:12;;;;;;;1.13;0.60;;;11.50;90.70;;;;;;5031740;28;20060;-31
2023/11/04 12:33:39;;;;;;;0.98;0.65;;;11.50;90.70;;;;;;5032256;28;20018;-27
2023/11/04 12:36:07;;;;;;;2.97;0.80;;;11.50;90.70;;;;;;5032199;28;20025;-30
2023/11/04 12:38:33;;;;;;;1.98;0.68;;;11.50;90.70;;;;;;5031777;28;20029;-35
2023/11/04 12:41:00;;;;;;;5.38;0.90;;;11.50;90.70;;;;;;5031655;28;20135;-29
2023/11/04 12:43:26;;;;;;;0.75;0.60;;;11.40;90.50;;;;;;5031734;28;20018;-27